createdAt,value
2023-02-01T00:01:19.354Z,9.46
2023-02-01T00:03:46.796Z,9.41
2023-02-01T00:06:14.211Z,9.62
2023-02-01T00:08:41.588Z,9.51
2023-02-01T00:11:11.335Z,9.44
2023-02-01T00:13:40.710Z,9.23
2023-02-01T00:16:10.461Z,9.19
2023-02-01T00:18:37.816Z,9.20
2023-02-01T00:21:05.576Z,9.34
2023-02-01T00:23:35.271Z,9.49
2023-02-01T00:26:06.546Z,9.30
2023-02-01T00:28:34.428Z,9.21
2023-02-01T00:31:04.053Z,9.25
2023-02-01T00:33:32.693Z,9.39
2023-02-01T00:36:02.863Z,9.43
2023-02-01T00:38:35.238Z,9.73
2023-02-01T00:41:19.600Z,9.52
2023-02-01T00:43:47.438Z,9.34
2023-02-01T00:46:16.352Z,9.30
2023-02-01T00:48:43.852Z,9.30
2023-02-01T00:51:18.127Z,9.20
2023-02-01T00:53:46.315Z,9.25
2023-02-01T00:56:14.175Z,9.40
2023-02-01T00:58:45.292Z,9.49
2023-02-01T01:01:17.027Z,9.33
2023-02-01T01:03:52.888Z,9.59
2023-02-01T01:06:24.421Z,9.36
2023-02-01T01:08:53.582Z,9.26
2023-02-01T01:11:25.981Z,9.35
2023-02-01T01:13:54.438Z,9.44
2023-02-01T01:16:22.713Z,9.41
2023-02-01T01:18:50.297Z,9.21
2023-02-01T01:21:18.371Z,9.17
2023-02-01T01:23:46.805Z,9.41
2023-02-01T01:26:17.140Z,9.19
2023-02-01T01:28:44.810Z,9.15
2023-02-01T01:31:13.786Z,9.23
2023-02-01T01:33:41.243Z,9.26
2023-02-01T01:36:13.530Z,9.16
2023-02-01T01:38:43.116Z,8.98
2023-02-01T01:41:15.740Z,8.98
2023-02-01T01:44:00.208Z,9.01
2023-02-01T01:46:32.722Z,9.31
2023-02-01T01:49:18.344Z,9.19
2023-02-01T01:51:49.887Z,9.46
2023-02-01T01:54:21.489Z,9.30
2023-02-01T01:56:56.523Z,9.08
2023-02-01T01:59:26.161Z,8.89
2023-02-01T02:01:54.052Z,8.94
2023-02-01T02:04:21.493Z,8.95
2023-02-01T02:06:56.467Z,8.95
2023-02-01T02:09:24.259Z,9.01
2023-02-01T02:11:51.480Z,8.84
2023-02-01T02:14:20.600Z,9.03
2023-02-01T02:17:04.187Z,9.10
2023-02-01T02:19:56.469Z,9.10
2023-02-01T02:22:57.203Z,8.93
2023-02-01T02:25:34.305Z,9.16
2023-02-01T02:28:30.931Z,9.01
2023-02-01T02:31:23.109Z,9.12
2023-02-01T02:34:42.455Z,9.08
2023-02-01T02:37:21.789Z,9.04
2023-02-01T02:39:57.413Z,9.06
2023-02-01T02:43:00.808Z,9.09
2023-02-01T02:45:52.170Z,9.15
2023-02-01T02:48:44.077Z,9.32
2023-02-01T02:51:34.499Z,9.24
2023-02-01T02:54:43.617Z,9.15
2023-02-01T02:57:32.430Z,9.13
2023-02-01T03:00:20.317Z,9.36
2023-02-01T03:03:08.974Z,9.12
2023-02-01T03:05:37.912Z,9.23
2023-02-01T03:08:22.495Z,9.13
2023-02-01T03:11:09.833Z,9.07
2023-02-01T03:13:39.963Z,9.12
2023-02-01T03:16:10.310Z,9.04
2023-02-01T03:18:49.066Z,9.03
2023-02-01T03:21:24.137Z,9.00
2023-02-01T03:23:54.665Z,9.20
2023-02-01T03:26:26.337Z,9.34
2023-02-01T03:29:01.395Z,9.08
2023-02-01T03:31:29.248Z,9.01
2023-02-01T03:33:56.745Z,9.10
2023-02-01T03:36:49.185Z,9.13
2023-02-01T03:39:24.247Z,9.13
2023-02-01T03:41:57.129Z,9.21
2023-02-01T03:44:29.107Z,9.33
2023-02-01T03:47:15.976Z,9.01
2023-02-01T03:49:48.403Z,9.06
2023-02-01T03:52:19.240Z,9.38
2023-02-01T03:54:47.654Z,9.34
2023-02-01T03:57:17.752Z,9.12
2023-02-01T03:59:45.653Z,9.05
2023-02-01T04:02:12.828Z,9.22
2023-02-01T04:04:40.261Z,9.25
2023-02-01T04:07:08.047Z,9.13
2023-02-01T04:09:35.315Z,9.06
2023-02-01T04:12:03.473Z,9.08
2023-02-01T04:14:30.887Z,9.07
2023-02-01T04:16:58.104Z,9.00
2023-02-01T04:19:25.357Z,9.30
2023-02-01T04:21:52.591Z,9.20
2023-02-01T04:24:19.979Z,9.12
2023-02-01T04:26:47.386Z,9.02
2023-02-01T04:29:14.647Z,9.22
2023-02-01T04:31:42.211Z,9.23
2023-02-01T04:34:09.619Z,9.32
2023-02-01T04:36:36.959Z,9.05
2023-02-01T04:39:04.871Z,9.10
2023-02-01T04:41:32.264Z,9.21
2023-02-01T04:43:59.486Z,9.20
2023-02-01T04:46:26.835Z,9.16
2023-02-01T04:48:54.222Z,9.11
2023-02-01T04:51:21.485Z,9.03
2023-02-01T04:53:48.961Z,9.01
2023-02-01T04:56:16.270Z,9.04
2023-02-01T04:58:43.685Z,8.92
2023-02-01T05:01:11.099Z,9.21
2023-02-01T05:03:38.514Z,9.06
2023-02-01T05:06:06.041Z,8.91
2023-02-01T05:08:33.999Z,8.86
2023-02-01T05:11:03.516Z,8.93
2023-02-01T05:13:49.665Z,8.78
2023-02-01T05:16:17.198Z,8.51
2023-02-01T05:19:04.706Z,8.42
2023-02-01T05:21:31.940Z,8.49
2023-02-01T05:24:13.861Z,8.54
2023-02-01T05:26:41.956Z,8.66
2023-02-01T05:29:10.494Z,8.60
2023-02-01T05:31:38.246Z,8.52
2023-02-01T05:34:05.930Z,8.50
2023-02-01T05:36:33.654Z,8.19
2023-02-01T05:39:00.914Z,8.36
2023-02-01T05:41:28.248Z,8.42
2023-02-01T05:43:55.538Z,8.48
2023-02-01T05:46:22.940Z,8.45
2023-02-01T05:48:50.566Z,8.37
2023-02-01T05:51:22.566Z,8.42
2023-02-01T05:53:50.323Z,8.43
2023-02-01T05:56:17.614Z,8.47
2023-02-01T05:58:45.039Z,8.35
2023-02-01T06:01:12.534Z,8.34
2023-02-01T06:03:39.948Z,8.59
2023-02-01T06:06:07.499Z,8.34
2023-02-01T06:08:34.771Z,8.27
2023-02-01T06:11:06.241Z,8.57
2023-02-01T06:13:34.737Z,8.46
2023-02-01T06:16:04.162Z,8.87
2023-02-01T06:18:31.783Z,8.69
2023-02-01T06:21:01.647Z,8.60
2023-02-01T06:23:31.569Z,8.57
2023-02-01T06:26:10.362Z,8.39
2023-02-01T06:28:37.698Z,8.44
2023-02-01T06:31:07.616Z,8.45
2023-02-01T06:33:35.648Z,8.44
2023-02-01T06:36:05.377Z,8.42
2023-02-01T06:38:35.711Z,8.50
2023-02-01T06:41:03.453Z,8.70
2023-02-01T06:43:31.309Z,8.75
2023-02-01T06:46:03.766Z,8.45
2023-02-01T06:48:31.409Z,8.50
2023-02-01T06:50:58.942Z,8.56
2023-02-01T06:53:26.914Z,8.49
2023-02-01T06:55:59.480Z,8.45
2023-02-01T06:58:34.206Z,8.55
2023-02-01T07:01:08.900Z,8.62
2023-02-01T07:03:36.888Z,8.36
2023-02-01T07:06:05.584Z,8.51
2023-02-01T07:08:34.825Z,8.73
2023-02-01T07:11:12.526Z,8.76
2023-02-01T07:13:40.032Z,8.80
2023-02-01T07:16:10.647Z,8.89
2023-02-01T07:18:38.079Z,8.95
2023-02-01T07:21:05.733Z,9.20
2023-02-01T07:23:33.306Z,9.00
2023-02-01T07:26:04.183Z,8.76
2023-02-01T07:28:33.743Z,8.67
2023-02-01T07:31:10.175Z,8.47
2023-02-01T07:33:37.802Z,8.47
2023-02-01T07:36:07.513Z,8.47
2023-02-01T07:38:35.197Z,8.29
2023-02-01T07:41:04.485Z,8.38
2023-02-01T07:43:34.115Z,8.39
2023-02-01T07:46:02.191Z,8.31
2023-02-01T07:48:30.020Z,8.40
2023-02-01T07:51:02.013Z,8.63
2023-02-01T07:53:30.593Z,8.79
2023-02-01T07:55:58.228Z,8.73
2023-02-01T07:58:26.633Z,8.92
2023-02-01T08:01:12.851Z,8.69
2023-02-01T08:03:40.563Z,8.68
2023-02-01T08:06:08.169Z,8.75
2023-02-01T08:08:35.548Z,8.68
2023-02-01T08:11:06.227Z,8.77
2023-02-01T08:13:36.518Z,8.56
2023-02-01T08:16:06.680Z,8.46
2023-02-01T08:18:35.294Z,8.48
2023-02-01T08:21:12.046Z,8.59
2023-02-01T08:23:40.373Z,8.68
2023-02-01T08:26:16.116Z,8.69
2023-02-01T08:28:47.208Z,8.66
2023-02-01T08:31:17.092Z,8.72
2023-02-01T08:33:52.888Z,8.73
2023-02-01T08:36:21.035Z,8.74
2023-02-01T08:38:48.455Z,8.88
2023-02-01T08:41:19.488Z,8.92
2023-02-01T08:43:47.417Z,8.84
2023-02-01T08:46:15.363Z,8.68
2023-02-01T08:48:42.855Z,9.08
2023-02-01T08:51:12.354Z,15.30
2023-02-01T08:53:43.761Z,13.56
2023-02-01T08:56:15.199Z,10.98
2023-02-01T08:58:50.390Z,10.53
2023-02-01T09:01:18.637Z,9.81
2023-02-01T09:03:46.713Z,9.56
2023-02-01T09:06:16.489Z,9.27
2023-02-01T09:08:46.738Z,9.24
2023-02-01T09:11:18.387Z,9.28
2023-02-01T09:13:46.483Z,9.07
2023-02-01T09:16:17.081Z,9.20
2023-02-01T09:18:56.231Z,9.22
2023-02-01T09:21:32.213Z,9.13
2023-02-01T09:23:59.655Z,9.23
2023-02-01T09:26:32.021Z,9.11
2023-02-01T09:29:01.208Z,9.04
2023-02-01T09:31:28.610Z,9.09
2023-02-01T09:33:55.982Z,9.10
2023-02-01T09:36:24.659Z,9.41
2023-02-01T09:38:53.392Z,9.26
2023-02-01T09:41:55.128Z,9.24
2023-02-01T09:44:48.458Z,9.24
2023-02-01T09:47:19.041Z,9.39
2023-02-01T09:50:03.152Z,9.46
2023-02-01T09:52:41.985Z,9.50
2023-02-01T09:55:33.047Z,9.26
2023-02-01T09:58:04.037Z,9.35
2023-02-01T10:00:35.742Z,9.36
2023-02-01T10:03:08.039Z,9.29
2023-02-01T10:05:59.305Z,9.52
2023-02-01T10:08:52.661Z,9.21
2023-02-01T10:11:27.532Z,9.30
2023-02-01T10:14:19.775Z,9.37
2023-02-01T10:17:01.728Z,9.70
2023-02-01T10:19:51.784Z,9.81
2023-02-01T10:23:13.374Z,9.77
2023-02-01T10:25:50.799Z,9.75
2023-02-01T10:28:18.990Z,9.80
2023-02-01T10:30:49.428Z,9.77
2023-02-01T10:33:28.730Z,9.81
2023-02-01T10:36:23.438Z,10.05
2023-02-01T10:38:50.964Z,10.11
2023-02-01T10:41:22.002Z,10.06
2023-02-01T10:43:55.470Z,10.31
2023-02-01T10:46:38.349Z,10.53
2023-02-01T10:49:20.374Z,10.26
2023-02-01T10:51:54.780Z,10.11
2023-02-01T10:54:32.656Z,10.17
2023-02-01T10:57:00.663Z,9.96
2023-02-01T10:59:30.470Z,9.89
2023-02-01T11:02:03.488Z,9.93
2023-02-01T11:04:35.697Z,10.18
2023-02-01T11:07:26.060Z,10.41
2023-02-01T11:09:59.090Z,10.35
2023-02-01T11:12:30.866Z,10.34
2023-02-01T11:15:02.282Z,10.43
2023-02-01T11:17:35.140Z,10.55
2023-02-01T11:20:10.160Z,10.66
2023-02-01T11:22:37.462Z,10.38
2023-02-01T11:25:10.684Z,10.47
2023-02-01T11:27:49.524Z,10.23
2023-02-01T11:30:36.245Z,10.45
2023-02-01T11:33:06.866Z,10.48
2023-02-01T11:35:38.364Z,10.22
2023-02-01T11:38:31.431Z,10.46
2023-02-01T11:41:14.395Z,10.46
2023-02-01T11:44:00.021Z,9.99
2023-02-01T11:46:33.375Z,10.08
2023-02-01T11:49:24.051Z,10.79
2023-02-01T11:52:19.719Z,10.92
2023-02-01T11:54:56.789Z,10.54
2023-02-01T11:58:07.962Z,10.56
2023-02-01T12:01:13.024Z,10.47
2023-02-01T12:04:15.277Z,10.44
2023-02-01T12:06:53.092Z,10.56
2023-02-01T12:10:02.506Z,10.19
2023-02-01T12:12:36.025Z,10.93
2023-02-01T12:15:31.880Z,11.09
2023-02-01T12:18:05.912Z,11.08
2023-02-01T12:21:03.346Z,10.68
2023-02-01T12:23:38.539Z,10.63
2023-02-01T12:26:27.948Z,10.71
2023-02-01T12:29:33.873Z,10.67
2023-02-01T12:32:12.033Z,10.57
2023-02-01T12:34:54.474Z,10.36
2023-02-01T12:37:30.779Z,10.70
2023-02-01T12:40:27.785Z,10.78
2023-02-01T12:43:11.501Z,10.51
2023-02-01T12:45:39.076Z,10.53
2023-02-01T12:48:13.155Z,10.47
2023-02-01T12:50:48.709Z,10.62
2023-02-01T12:53:48.132Z,10.49
2023-02-01T12:56:31.556Z,10.61
2023-02-01T12:59:02.100Z,10.85
2023-02-01T13:01:36.254Z,11.01
2023-02-01T13:04:12.707Z,10.95
2023-02-01T13:06:44.666Z,11.05
2023-02-01T13:09:32.897Z,11.12
2023-02-01T13:12:13.627Z,10.88
2023-02-01T13:15:13.431Z,10.90
2023-02-01T13:17:41.742Z,10.81
2023-02-01T13:20:22.341Z,11.01
2023-02-01T13:22:54.695Z,10.87
2023-02-01T13:25:35.107Z,10.96
2023-02-01T13:28:13.379Z,10.79
2023-02-01T13:31:05.868Z,10.87
2023-02-01T13:34:02.673Z,11.39
2023-02-01T13:36:50.139Z,10.87
2023-02-01T13:39:48.825Z,10.49
2023-02-01T13:42:26.547Z,10.87
2023-02-01T13:44:59.264Z,10.63
2023-02-01T13:47:34.812Z,10.68
2023-02-01T13:50:15.055Z,10.72
2023-02-01T13:52:45.062Z,10.99
2023-02-01T13:55:21.761Z,11.17
2023-02-01T13:58:01.450Z,11.19
2023-02-01T14:00:31.924Z,10.84
2023-02-01T14:03:02.453Z,11.07
2023-02-01T14:05:32.986Z,10.97
2023-02-01T14:08:06.532Z,11.00
2023-02-01T14:10:51.859Z,10.84
2023-02-01T14:13:41.857Z,11.02
2023-02-01T14:16:17.592Z,10.85
2023-02-01T14:18:47.347Z,10.63
2023-02-01T14:21:22.348Z,10.91
2023-02-01T14:24:02.226Z,10.69
2023-02-01T14:26:43.637Z,10.57
2023-02-01T14:29:21.416Z,10.86
2023-02-01T14:32:07.910Z,11.17
2023-02-01T14:34:47.784Z,11.25
2023-02-01T14:37:18.077Z,11.25
2023-02-01T14:39:45.264Z,11.41
2023-02-01T14:42:40.342Z,11.32
2023-02-01T14:45:20.539Z,11.39
2023-02-01T14:47:48.805Z,11.46
2023-02-01T14:50:34.882Z,12.00
2023-02-01T14:53:11.558Z,11.64
2023-02-01T14:56:06.500Z,11.00
2023-02-01T14:58:41.124Z,10.98
2023-02-01T15:01:28.047Z,10.98
2023-02-01T15:03:59.859Z,11.12
2023-02-01T15:06:30.246Z,11.19
2023-02-01T15:09:02.111Z,11.15
2023-02-01T15:11:29.681Z,11.21
2023-02-01T15:13:58.329Z,11.23
2023-02-01T15:16:27.345Z,10.85
2023-02-01T15:19:12.321Z,10.77
2023-02-01T15:21:48.464Z,10.81
2023-02-01T15:24:36.101Z,10.84
2023-02-01T15:27:05.975Z,10.75
2023-02-01T15:29:34.312Z,10.71
2023-02-01T15:32:01.961Z,10.58
2023-02-01T15:34:50.070Z,10.50
2023-02-01T15:37:19.479Z,10.48
2023-02-01T15:40:11.586Z,10.65
2023-02-01T15:42:50.730Z,10.37
2023-02-01T15:45:19.968Z,10.37
2023-02-01T15:47:52.066Z,10.40
2023-02-01T15:50:22.336Z,10.60
2023-02-01T15:52:52.202Z,10.47
2023-02-01T15:55:26.677Z,10.43
2023-02-01T15:57:54.215Z,10.30
2023-02-01T16:00:28.555Z,10.35
2023-02-01T16:02:59.049Z,10.30
2023-02-01T16:05:46.629Z,10.27
2023-02-01T16:08:16.769Z,10.31
2023-02-01T16:10:47.813Z,10.23
2023-02-01T16:13:16.426Z,10.20
2023-02-01T16:15:43.996Z,10.22
2023-02-01T16:18:12.797Z,10.23
2023-02-01T16:20:42.027Z,10.29
2023-02-01T16:23:10.514Z,10.26
2023-02-01T16:25:39.066Z,10.20
2023-02-01T16:28:06.542Z,10.29
2023-02-01T16:30:34.282Z,10.27
2023-02-01T16:33:08.412Z,10.53
2023-02-01T16:35:37.709Z,10.49
2023-02-01T16:38:09.770Z,10.36
2023-02-01T16:40:37.930Z,10.26
2023-02-01T16:43:19.849Z,10.37
2023-02-01T16:45:49.486Z,10.43
2023-02-01T16:48:32.308Z,10.30
2023-02-01T16:51:02.271Z,10.32
2023-02-01T16:53:32.915Z,10.51
2023-02-01T16:56:04.592Z,10.36
2023-02-01T16:58:33.246Z,10.12
2023-02-01T17:01:00.577Z,10.40
2023-02-01T17:03:28.184Z,10.36
2023-02-01T17:05:56.927Z,10.26
2023-02-01T17:08:37.238Z,10.17
2023-02-01T17:11:05.992Z,10.44
2023-02-01T17:13:34.304Z,10.37
2023-02-01T17:16:09.627Z,10.62
2023-02-01T17:18:37.074Z,10.68
2023-02-01T17:21:05.901Z,10.40
2023-02-01T17:23:33.531Z,10.31
2023-02-01T17:26:01.147Z,10.20
2023-02-01T17:28:29.182Z,10.32
2023-02-01T17:30:57.446Z,10.21
2023-02-01T17:33:35.633Z,10.18
2023-02-01T17:36:06.846Z,10.18
2023-02-01T17:38:35.264Z,10.17
2023-02-01T17:41:02.541Z,10.22
2023-02-01T17:43:29.883Z,9.89
2023-02-01T17:46:16.476Z,10.08
2023-02-01T17:48:44.073Z,10.17
2023-02-01T17:51:17.626Z,10.23
2023-02-01T17:53:46.157Z,10.09
2023-02-01T17:56:19.144Z,10.02
2023-02-01T17:58:47.028Z,10.20
2023-02-01T18:01:18.482Z,10.14
2023-02-01T18:03:46.096Z,10.08
2023-02-01T18:06:16.957Z,10.45
2023-02-01T18:08:44.640Z,10.33
2023-02-01T18:11:14.804Z,10.36
2023-02-01T18:13:42.304Z,10.31
2023-02-01T18:16:33.055Z,10.29
2023-02-01T18:19:02.457Z,10.23
2023-02-01T18:21:33.741Z,10.09
2023-02-01T18:24:01.780Z,10.11
2023-02-01T18:26:35.361Z,10.29
2023-02-01T18:29:09.767Z,10.14
2023-02-01T18:31:41.981Z,9.91
2023-02-01T18:34:10.132Z,9.81
2023-02-01T18:36:37.358Z,9.85
2023-02-01T18:39:06.401Z,10.01
2023-02-01T18:41:34.677Z,9.83
2023-02-01T18:44:02.148Z,9.84
2023-02-01T18:46:32.237Z,9.89
2023-02-01T18:48:59.574Z,9.89
2023-02-01T18:51:26.751Z,10.12
2023-02-01T18:53:54.024Z,9.89
2023-02-01T18:56:21.440Z,10.02
2023-02-01T18:58:48.729Z,10.19
2023-02-01T19:01:20.183Z,10.04
2023-02-01T19:03:55.411Z,9.82
2023-02-01T19:06:27.377Z,9.81
2023-02-01T19:08:56.683Z,9.68
2023-02-01T19:11:23.981Z,9.78
2023-02-01T19:13:51.677Z,9.84
2023-02-01T19:16:19.523Z,10.08
2023-02-01T19:18:51.068Z,10.07
2023-02-01T19:21:18.586Z,9.94
2023-02-01T19:23:46.183Z,9.94
2023-02-01T19:26:15.768Z,9.73
2023-02-01T19:28:47.934Z,9.96
2023-02-01T19:31:16.377Z,9.85
2023-02-01T19:33:44.939Z,10.01
2023-02-01T19:36:12.603Z,10.06
2023-02-01T19:38:40.520Z,9.94
2023-02-01T19:41:08.114Z,9.91
2023-02-01T19:43:36.790Z,9.93
2023-02-01T19:46:04.587Z,9.72
2023-02-01T19:48:34.367Z,9.41
2023-02-01T19:51:02.153Z,9.45
2023-02-01T19:53:30.095Z,9.76
2023-02-01T19:55:58.726Z,9.80
2023-02-01T19:58:28.651Z,9.71
2023-02-01T20:00:56.324Z,9.65
2023-02-01T20:03:24.167Z,9.88
2023-02-01T20:05:55.593Z,9.58
2023-02-01T20:08:23.252Z,9.84
2023-02-01T20:10:50.672Z,9.89
2023-02-01T20:13:19.273Z,10.05
2023-02-01T20:15:46.770Z,9.61
2023-02-01T20:18:14.137Z,9.79
2023-02-01T20:20:41.987Z,9.77
2023-02-01T20:23:09.515Z,9.83
2023-02-01T20:25:38.919Z,9.97
2023-02-01T20:28:07.426Z,9.45
2023-02-01T20:30:34.768Z,9.96
2023-02-01T20:33:02.222Z,9.52
2023-02-01T20:35:29.473Z,9.81
2023-02-01T20:37:58.956Z,10.02
2023-02-01T20:40:26.439Z,9.75
2023-02-01T20:42:54.450Z,9.76
2023-02-01T20:45:22.086Z,9.81
2023-02-01T20:47:51.098Z,9.94
2023-02-01T20:50:19.294Z,9.76
2023-02-01T20:52:46.909Z,9.64
2023-02-01T20:55:14.242Z,9.85
2023-02-01T20:57:42.089Z,9.76
2023-02-01T21:00:10.373Z,9.67
2023-02-01T21:02:37.768Z,9.75
2023-02-01T21:05:05.439Z,9.73
2023-02-01T21:07:32.701Z,9.51
2023-02-01T21:10:00.057Z,9.47
2023-02-01T21:12:27.857Z,9.57
2023-02-01T21:14:55.497Z,9.56
2023-02-01T21:17:23.369Z,9.81
2023-02-01T21:19:50.739Z,9.46
2023-02-01T21:22:17.944Z,9.46
2023-02-01T21:24:45.372Z,9.60
2023-02-01T21:27:12.897Z,9.64
2023-02-01T21:29:40.415Z,9.45
2023-02-01T21:32:08.575Z,9.61
2023-02-01T21:34:36.246Z,9.53
2023-02-01T21:37:03.688Z,9.69
2023-02-01T21:39:31.550Z,9.64
2023-02-01T21:42:14.028Z,9.44
2023-02-01T21:44:42.005Z,9.50
2023-02-01T21:47:10.851Z,9.50
2023-02-01T21:49:38.195Z,9.60
2023-02-01T21:52:05.811Z,9.69
2023-02-01T21:54:33.171Z,9.48
2023-02-01T21:57:00.467Z,9.44
2023-02-01T21:59:27.793Z,9.47
2023-02-01T22:01:55.070Z,9.71
2023-02-01T22:04:22.460Z,9.43
2023-02-01T22:06:49.722Z,9.53
2023-02-01T22:09:27.104Z,9.23
2023-02-01T22:11:55.135Z,9.36
2023-02-01T22:14:22.745Z,9.38
2023-02-01T22:16:50.119Z,9.63
2023-02-01T22:19:17.846Z,9.41
2023-02-01T22:21:47.060Z,9.31
2023-02-01T22:24:16.751Z,9.38
2023-02-01T22:26:44.472Z,9.56
2023-02-01T22:29:14.855Z,9.34
2023-02-01T22:31:43.559Z,8.96
2023-02-01T22:34:11.883Z,9.24
2023-02-01T22:36:39.952Z,9.29
2023-02-01T22:39:08.143Z,9.24
2023-02-01T22:41:35.671Z,9.35
2023-02-01T22:44:03.076Z,9.21
2023-02-01T22:46:33.315Z,9.06
2023-02-01T22:49:01.077Z,9.02
2023-02-01T22:51:30.679Z,9.13
2023-02-01T22:53:58.175Z,9.18
2023-02-01T22:56:30.386Z,9.24
2023-02-01T22:59:05.890Z,9.39
2023-02-01T23:01:33.850Z,9.16
2023-02-01T23:04:03.372Z,9.40
2023-02-01T23:06:31.605Z,9.49
2023-02-01T23:09:01.111Z,9.16
2023-02-01T23:11:29.446Z,9.22
2023-02-01T23:13:56.819Z,9.30
2023-02-01T23:16:24.075Z,9.39
2023-02-01T23:18:51.524Z,9.39
2023-02-01T23:21:20.711Z,9.18
2023-02-01T23:23:52.025Z,9.12
2023-02-01T23:26:20.107Z,9.14
2023-02-01T23:28:49.830Z,8.88
2023-02-01T23:31:17.248Z,8.86
2023-02-01T23:33:45.950Z,9.08
2023-02-01T23:36:16.200Z,9.03
2023-02-01T23:38:44.374Z,8.83
2023-02-01T23:41:15.184Z,8.69
2023-02-01T23:43:58.083Z,8.75
2023-02-01T23:46:26.461Z,8.60
2023-02-01T23:48:54.205Z,8.66
2023-02-01T23:51:22.117Z,8.69
2023-02-01T23:53:49.955Z,8.65
2023-02-01T23:56:38.544Z,8.72
2023-02-01T23:59:08.021Z,8.59
